createdAt,value
2022-11-27T00:01:27.814Z,98424.03
2022-11-27T00:03:56.165Z,98430.19
2022-11-27T00:06:25.744Z,98432.06
2022-11-27T00:08:52.849Z,98432.88
2022-11-27T00:11:22.475Z,98423.19
2022-11-27T00:13:50.464Z,98426.06
2022-11-27T00:16:18.144Z,98424.63
2022-11-27T00:18:46.017Z,98423.41
2022-11-27T00:21:19.140Z,98422.59
2022-11-27T00:23:46.668Z,98427.94
2022-11-27T00:26:15.336Z,98431.66
2022-11-27T00:28:42.665Z,98430.63
2022-11-27T00:31:27.578Z,98433.06
2022-11-27T00:33:55.929Z,98429.56
2022-11-27T00:36:23.065Z,98428.16
2022-11-27T00:38:49.961Z,98435.34
2022-11-27T00:41:22.659Z,98419.50
2022-11-27T00:43:49.918Z,98427.31
2022-11-27T00:46:18.516Z,98425.69
2022-11-27T00:48:46.103Z,98424.88
2022-11-27T00:51:15.398Z,98429.41
2022-11-27T00:53:42.701Z,98424.03
2022-11-27T00:56:11.035Z,98425.69
2022-11-27T00:58:37.703Z,98420.56
2022-11-27T01:01:06.944Z,98417.06
2022-11-27T01:03:34.767Z,98417.47
2022-11-27T01:06:06.404Z,98415.81
2022-11-27T01:08:33.981Z,98417.47
2022-11-27T01:11:00.963Z,98415.81
2022-11-27T01:13:30.184Z,98414.59
2022-11-27T01:16:12.894Z,98422.03
2022-11-27T01:18:42.142Z,98414.41
2022-11-27T01:21:09.417Z,98424.72
2022-11-27T01:23:36.854Z,98414.19
2022-11-27T01:26:05.298Z,98412.56
2022-11-27T01:28:32.941Z,98409.47
2022-11-27T01:31:06.066Z,98414.66
2022-11-27T01:33:33.186Z,98411.34
2022-11-27T01:36:02.482Z,98411.56
2022-11-27T01:38:30.349Z,98406.63
2022-11-27T01:41:02.212Z,98416.53
2022-11-27T01:43:57.944Z,98411.75
2022-11-27T01:46:44.117Z,98410.72
2022-11-27T01:49:10.836Z,98411.34
2022-11-27T01:51:53.164Z,98399.81
2022-11-27T01:54:22.823Z,98408.44
2022-11-27T01:56:52.204Z,98406.38
2022-11-27T01:59:19.533Z,98408.03
2022-11-27T02:01:46.695Z,98410.31
2022-11-27T02:04:13.846Z,98409.09
2022-11-27T02:06:40.594Z,98411.34
2022-11-27T02:09:07.424Z,98408.50
2022-11-27T02:11:49.237Z,98406.22
2022-11-27T02:14:24.391Z,98407.66
2022-11-27T02:17:01.464Z,98417.94
2022-11-27T02:19:33.784Z,98424.97
2022-11-27T02:22:03.674Z,98419.78
2022-11-27T02:24:48.349Z,98417.34
2022-11-27T02:27:42.305Z,98426.19
2022-11-27T02:30:09.693Z,98428.66
2022-11-27T02:33:00.498Z,98428.47
2022-11-27T02:35:39.373Z,98427.84
2022-11-27T02:38:17.437Z,98427.84
2022-11-27T02:40:54.698Z,98420.84
2022-11-27T02:43:28.739Z,98428.28
2022-11-27T02:45:55.875Z,98431.38
2022-11-27T02:48:27.224Z,98428.72
2022-11-27T02:50:54.316Z,98432.41
2022-11-27T02:53:27.025Z,98436.94
2022-11-27T02:55:54.888Z,98432.41
2022-11-27T02:58:25.788Z,98437.97
2022-11-27T03:00:52.904Z,98435.06
2022-11-27T03:03:29.918Z,98436.94
2022-11-27T03:06:04.853Z,98432.63
2022-11-27T03:08:47.414Z,98434.66
2022-11-27T03:11:15.541Z,98435.72
2022-11-27T03:13:46.367Z,98435.72
2022-11-27T03:16:25.020Z,98426.88
2022-11-27T03:19:10.421Z,98434.66
2022-11-27T03:21:40.982Z,98438.38
2022-11-27T03:24:08.873Z,98426.69
2022-11-27T03:26:37.129Z,98435.31
2022-11-27T03:29:09.084Z,98426.22
2022-11-27T03:31:35.998Z,98416.56
2022-11-27T03:34:02.798Z,98401.97
2022-11-27T03:36:29.438Z,98415.34
2022-11-27T03:38:56.869Z,98421.13
2022-11-27T03:41:49.624Z,98421.53
2022-11-27T03:44:42.115Z,98420.13
2022-11-27T03:47:37.020Z,98422.56
2022-11-27T03:50:23.785Z,98412.69
2022-11-27T03:53:14.941Z,98417.84
2022-11-27T03:56:13.676Z,98423.78
2022-11-27T03:58:52.247Z,98428.75
2022-11-27T04:01:23.239Z,98429.56
2022-11-27T04:03:49.954Z,98427.09
2022-11-27T04:06:17.664Z,98429.56
2022-11-27T04:08:48.795Z,98428.53
2022-11-27T04:11:15.815Z,98426.47
2022-11-27T04:13:42.839Z,98425.47
2022-11-27T04:16:09.523Z,98434.31
2022-11-27T04:18:36.219Z,98431.00
2022-11-27T04:21:03.495Z,98435.13
2022-11-27T04:23:30.196Z,98429.16
2022-11-27T04:25:56.986Z,98436.56
2022-11-27T04:28:23.637Z,98430.19
2022-11-27T04:30:54.789Z,98440.66
2022-11-27T04:33:21.966Z,98433.28
2022-11-27T04:35:49.341Z,98432.28
2022-11-27T04:38:16.190Z,98427.13
2022-11-27T04:40:42.924Z,98426.31
2022-11-27T04:43:09.636Z,98424.03
2022-11-27T04:45:37.164Z,98430.63
2022-11-27T04:48:04.818Z,98434.72
2022-11-27T04:50:31.494Z,98439.88
2022-11-27T04:52:58.438Z,98435.34
2022-11-27T04:55:25.047Z,98435.13
2022-11-27T04:57:51.646Z,98440.50
2022-11-27T05:00:18.909Z,98446.47
2022-11-27T05:02:45.577Z,98442.53
2022-11-27T05:05:12.373Z,98448.94
2022-11-27T05:07:39.241Z,98446.47
2022-11-27T05:10:06.881Z,98434.09
2022-11-27T05:12:33.605Z,98439.88
2022-11-27T05:15:04.274Z,98426.13
2022-11-27T05:17:31.584Z,98436.00
2022-11-27T05:19:58.618Z,98440.91
2022-11-27T05:22:25.261Z,98439.03
2022-11-27T05:24:51.801Z,98423.00
2022-11-27T05:27:18.785Z,98429.38
2022-11-27T05:29:45.619Z,98431.47
2022-11-27T05:32:12.248Z,98437.63
2022-11-27T05:34:39.397Z,98439.91
2022-11-27T05:37:06.500Z,98436.00
2022-11-27T05:39:33.091Z,98445.88
2022-11-27T05:41:59.824Z,98441.53
2022-11-27T05:44:26.969Z,98440.13
2022-11-27T05:46:53.681Z,98442.78
2022-11-27T05:49:20.507Z,98441.34
2022-11-27T05:51:51.350Z,98439.28
2022-11-27T05:54:19.105Z,98441.94
2022-11-27T05:56:45.791Z,98446.47
2022-11-27T05:59:12.756Z,98443.63
2022-11-27T06:01:39.581Z,98440.31
2022-11-27T06:04:06.294Z,98440.31
2022-11-27T06:06:32.963Z,98431.06
2022-11-27T06:09:00.459Z,98442.38
2022-11-27T06:11:27.525Z,98443.19
2022-11-27T06:13:54.138Z,98442.97
2022-11-27T06:16:23.203Z,98442.38
2022-11-27T06:18:52.020Z,98446.50
2022-11-27T06:21:19.895Z,98453.91
2022-11-27T06:23:46.615Z,98441.16
2022-11-27T06:26:14.774Z,98451.63
2022-11-27T06:28:42.045Z,98456.56
2022-11-27T06:31:20.612Z,98460.69
2022-11-27T06:33:49.274Z,98462.13
2022-11-27T06:36:16.431Z,98450.00
2022-11-27T06:38:44.172Z,98463.75
2022-11-27T06:41:19.628Z,98476.13
2022-11-27T06:43:46.276Z,98467.06
2022-11-27T06:46:16.365Z,98470.16
2022-11-27T06:48:44.619Z,98472.19
2022-11-27T06:51:14.484Z,98476.91
2022-11-27T06:53:41.974Z,98469.50
2022-11-27T06:56:11.653Z,98465.78
2022-11-27T06:58:39.221Z,98464.75
2022-11-27T07:01:09.739Z,98467.25
2022-11-27T07:03:36.790Z,98467.84
2022-11-27T07:06:05.041Z,98460.44
2022-11-27T07:08:31.832Z,98454.25
2022-11-27T07:11:07.307Z,98454.03
2022-11-27T07:13:34.078Z,98457.75
2022-11-27T07:16:02.244Z,98460.84
2022-11-27T07:18:30.678Z,98459.16
2022-11-27T07:20:57.420Z,98448.91
2022-11-27T07:23:24.077Z,98464.50
2022-11-27T07:25:50.812Z,98464.91
2022-11-27T07:28:18.992Z,98456.69
2022-11-27T07:30:53.814Z,98462.22
2022-11-27T07:33:20.668Z,98466.78
2022-11-27T07:35:47.265Z,98463.91
2022-11-27T07:38:13.986Z,98467.00
2022-11-27T07:40:40.674Z,98459.97
2022-11-27T07:43:07.321Z,98464.72
2022-11-27T07:45:34.136Z,98464.28
2022-11-27T07:48:01.050Z,98465.31
2022-11-27T07:50:27.624Z,98463.22
2022-11-27T07:52:54.469Z,98461.16
2022-11-27T07:55:21.115Z,98464.88
2022-11-27T07:57:47.697Z,98464.00
2022-11-27T08:00:15.144Z,98447.75
2022-11-27T08:02:41.878Z,98463.97
2022-11-27T08:05:12.655Z,98460.69
2022-11-27T08:07:39.875Z,98465.44
2022-11-27T08:10:07.284Z,98461.47
2022-11-27T08:12:33.881Z,98464.78
2022-11-27T08:15:00.603Z,98457.97
2022-11-27T08:17:27.476Z,98463.47
2022-11-27T08:19:54.098Z,98470.09
2022-11-27T08:22:20.810Z,98457.28
2022-11-27T08:24:48.185Z,98464.25
2022-11-27T08:27:16.471Z,98453.09
2022-11-27T08:29:43.642Z,98463.78
2022-11-27T08:32:10.687Z,98459.66
2022-11-27T08:34:37.672Z,98454.91
2022-11-27T08:37:06.179Z,98462.28
2022-11-27T08:39:33.072Z,98455.66
2022-11-27T08:42:00.027Z,98453.59
2022-11-27T08:44:26.741Z,98450.50
2022-11-27T08:46:53.617Z,98452.09
2022-11-27T08:49:20.337Z,98446.06
2022-11-27T08:51:46.959Z,98441.91
2022-11-27T08:54:13.686Z,98442.53
2022-11-27T08:56:40.303Z,98451.16
2022-11-27T08:59:06.996Z,98455.06
2022-11-27T09:01:34.010Z,98448.81
2022-11-27T09:04:00.858Z,98449.44
2022-11-27T09:06:30.808Z,98444.22
2022-11-27T09:08:59.504Z,98451.41
2022-11-27T09:11:27.795Z,98435.88
2022-11-27T09:13:55.016Z,98443.06
2022-11-27T09:16:22.886Z,98431.47
2022-11-27T09:18:51.497Z,98439.66
2022-11-27T09:21:19.793Z,98434.28
2022-11-27T09:23:46.655Z,98433.84
2022-11-27T09:26:16.718Z,98436.94
2022-11-27T09:28:44.494Z,98444.09
2022-11-27T09:31:14.316Z,98436.41
2022-11-27T09:33:41.685Z,98428.94
2022-11-27T09:36:14.506Z,98425.66
2022-11-27T09:38:42.497Z,98432.25
2022-11-27T09:41:11.879Z,98426.22
2022-11-27T09:44:20.442Z,98424.94
2022-11-27T09:46:47.221Z,98410.31
2022-11-27T09:49:36.869Z,98418.34
2022-11-27T09:52:11.691Z,98410.91
2022-11-27T09:54:52.211Z,98411.28
2022-11-27T09:57:25.681Z,98391.66
2022-11-27T09:59:54.199Z,98399.28
2022-11-27T10:02:32.685Z,98397.56
2022-11-27T10:05:17.615Z,98399.56
2022-11-27T10:07:54.204Z,98390.84
2022-11-27T10:10:27.335Z,98392.72
2022-11-27T10:13:15.715Z,98394.19
2022-11-27T10:15:49.030Z,98394.66
2022-11-27T10:18:34.442Z,98381.00
2022-11-27T10:21:20.198Z,98388.81
2022-11-27T10:23:53.690Z,98390.69
2022-11-27T10:26:35.175Z,98384.94
2022-11-27T10:29:23.295Z,98380.56
2022-11-27T10:31:53.653Z,98387.34
2022-11-27T10:34:43.546Z,98381.75
2022-11-27T10:37:19.582Z,98378.56
2022-11-27T10:39:56.669Z,98376.00
2022-11-27T10:42:32.573Z,98376.00
2022-11-27T10:45:05.970Z,98375.31
2022-11-27T10:47:34.020Z,98366.22
2022-11-27T10:50:01.120Z,98374.44
2022-11-27T10:52:27.776Z,98377.47
2022-11-27T10:55:04.703Z,98370.16
2022-11-27T10:58:06.536Z,98375.91
2022-11-27T11:00:33.339Z,98369.38
2022-11-27T11:03:05.174Z,98370.56
2022-11-27T11:05:45.646Z,98372.78
2022-11-27T11:08:21.180Z,98362.59
2022-11-27T11:11:03.351Z,98368.59
2022-11-27T11:13:33.398Z,98362.75
2022-11-27T11:16:04.413Z,98364.50
2022-11-27T11:18:42.839Z,98352.72
2022-11-27T11:21:26.266Z,98352.97
2022-11-27T11:23:57.917Z,98358.94
2022-11-27T11:26:31.440Z,98356.25
2022-11-27T11:29:01.857Z,98354.38
2022-11-27T11:31:38.578Z,98340.13
2022-11-27T11:34:18.380Z,98340.56
2022-11-27T11:37:04.462Z,98348.78
2022-11-27T11:39:44.521Z,98341.88
2022-11-27T11:42:25.955Z,98341.88
2022-11-27T11:44:55.755Z,98344.44
2022-11-27T11:47:25.225Z,98347.13
2022-11-27T11:49:55.312Z,98346.09
2022-11-27T11:52:24.826Z,98341.28
2022-11-27T11:55:13.293Z,98345.16
2022-11-27T11:58:10.499Z,98333.13
2022-11-27T12:01:25.959Z,98336.97
2022-11-27T12:03:50.205Z,98331.84
2022-11-27T12:06:36.047Z,98332.88
2022-11-27T12:09:13.071Z,98335.69
2022-11-27T12:12:17.953Z,98338.97
2022-11-27T12:14:50.431Z,98334.41
2022-11-27T12:17:37.188Z,98326.31
2022-11-27T12:20:12.831Z,98333.72
2022-11-27T12:23:08.015Z,98328.91
2022-11-27T12:25:43.970Z,98323.53
2022-11-27T12:28:30.094Z,98316.75
2022-11-27T12:31:15.087Z,98314.88
2022-11-27T12:34:18.578Z,98307.63
2022-11-27T12:37:13.953Z,98313.56
2022-11-27T12:40:05.306Z,98312.91
2022-11-27T12:42:41.218Z,98306.22
2022-11-27T12:45:14.348Z,98307.88
2022-11-27T12:47:43.668Z,98296.16
2022-11-27T12:50:38.286Z,98292.88
2022-11-27T12:53:49.473Z,98296.97
2022-11-27T12:56:25.271Z,98292.19
2022-11-27T12:58:57.717Z,98289.22
2022-11-27T13:01:33.486Z,98293.59
2022-11-27T13:04:06.156Z,98287.97
2022-11-27T13:06:40.394Z,98297.91
2022-11-27T13:09:15.364Z,98289.22
2022-11-27T13:11:43.253Z,98299.53
2022-11-27T13:14:18.854Z,98283.84
2022-11-27T13:16:53.153Z,98290.91
2022-11-27T13:19:27.023Z,98287.34
2022-11-27T13:21:56.304Z,98283.03
2022-11-27T13:24:25.069Z,98285.38
2022-11-27T13:27:13.779Z,98280.97
2022-11-27T13:29:46.941Z,98282.00
2022-11-27T13:32:51.355Z,98289.25
2022-11-27T13:35:31.653Z,98278.72
2022-11-27T13:38:08.953Z,98287.03
2022-11-27T13:40:47.834Z,98285.16
2022-11-27T13:43:30.579Z,98279.53
2022-11-27T13:46:11.939Z,98282.25
2022-11-27T13:48:42.795Z,98288.69
2022-11-27T13:51:11.882Z,98276.72
2022-11-27T13:53:42.534Z,98285.50
2022-11-27T13:56:09.802Z,98280.59
2022-11-27T13:58:39.731Z,98286.47
2022-11-27T14:01:32.886Z,98286.09
2022-11-27T14:04:09.225Z,98278.50
2022-11-27T14:06:38.725Z,98289.47
2022-11-27T14:09:06.965Z,98283.75
2022-11-27T14:11:44.088Z,98283.16
2022-11-27T14:14:23.051Z,98280.94
2022-11-27T14:17:04.376Z,98288.91
2022-11-27T14:19:34.594Z,98287.13
2022-11-27T14:22:13.671Z,98297.78
2022-11-27T14:24:44.032Z,98293.31
2022-11-27T14:27:20.915Z,98287.47
2022-11-27T14:29:48.678Z,98287.31
2022-11-27T14:32:16.734Z,98294.09
2022-11-27T14:34:44.252Z,98283.06
2022-11-27T14:37:26.159Z,98287.94
2022-11-27T14:39:52.900Z,98285.44
2022-11-27T14:42:29.567Z,98280.00
2022-11-27T14:45:02.247Z,98279.94
2022-11-27T14:47:29.219Z,98280.69
2022-11-27T14:49:56.582Z,98278.16
2022-11-27T14:52:24.331Z,98280.34
2022-11-27T14:54:51.751Z,98276.31
2022-11-27T14:57:29.471Z,98284.44
2022-11-27T15:00:27.259Z,98281.59
2022-11-27T15:02:54.721Z,98282.94
2022-11-27T15:05:27.406Z,98289.41
2022-11-27T15:07:57.613Z,98284.03
2022-11-27T15:10:37.451Z,98272.34
2022-11-27T15:13:06.182Z,98281.41
2022-11-27T15:15:42.219Z,98287.00
2022-11-27T15:18:09.771Z,98282.53
2022-11-27T15:20:44.922Z,98293.63
2022-11-27T15:23:32.313Z,98291.19
2022-11-27T15:26:02.252Z,98285.19
2022-11-27T15:28:41.033Z,98287.31
2022-11-27T15:31:28.020Z,98282.59
2022-11-27T15:33:57.767Z,98280.41
2022-11-27T15:36:25.408Z,98281.50
2022-11-27T15:38:52.914Z,98285.28
2022-11-27T15:41:28.986Z,98276.25
2022-11-27T15:43:56.398Z,98273.41
2022-11-27T15:46:27.020Z,98273.47
2022-11-27T15:48:53.893Z,98279.69
2022-11-27T15:51:20.560Z,98282.63
2022-11-27T15:53:48.308Z,98281.44
2022-11-27T15:56:16.324Z,98277.16
2022-11-27T15:58:43.674Z,98282.34
2022-11-27T16:01:11.414Z,98281.13
2022-11-27T16:03:40.066Z,98276.03
2022-11-27T16:06:08.969Z,98263.13
2022-11-27T16:08:35.810Z,98271.09
2022-11-27T16:11:06.105Z,98273.16
2022-11-27T16:13:32.971Z,98284.06
2022-11-27T16:16:08.617Z,98272.13
2022-11-27T16:18:35.365Z,98260.88
2022-11-27T16:21:06.598Z,98278.31
2022-11-27T16:23:33.582Z,98272.53
2022-11-27T16:26:00.424Z,98267.78
2022-11-27T16:28:28.485Z,98267.38
2022-11-27T16:30:57.164Z,98269.81
2022-11-27T16:33:31.617Z,98263.84
2022-11-27T16:36:09.156Z,98261.34
2022-11-27T16:38:35.776Z,98278.63
2022-11-27T16:41:04.462Z,98271.19
2022-11-27T16:43:35.354Z,98271.81
2022-11-27T16:46:23.066Z,98267.50
2022-11-27T16:48:50.387Z,98269.13
2022-11-27T16:51:21.757Z,98272.41
2022-11-27T16:53:56.743Z,98272.41
2022-11-27T16:56:27.069Z,98274.06
2022-11-27T16:58:59.371Z,98266.22
2022-11-27T17:01:31.995Z,98270.16
2022-11-27T17:03:59.726Z,98257.19
2022-11-27T17:06:29.304Z,98261.50
2022-11-27T17:08:57.688Z,98264.81
2022-11-27T17:11:27.261Z,98260.28
2022-11-27T17:13:57.725Z,98266.22
2022-11-27T17:16:24.944Z,98260.03
2022-11-27T17:18:51.608Z,98258.84
2022-11-27T17:21:27.553Z,98255.50
2022-11-27T17:23:55.823Z,98257.59
2022-11-27T17:26:24.047Z,98249.75
2022-11-27T17:28:51.384Z,98254.91
2022-11-27T17:31:20.400Z,98248.94
2022-11-27T17:33:47.753Z,98253.09
2022-11-27T17:36:15.632Z,98247.97
2022-11-27T17:38:42.383Z,98237.06
2022-11-27T17:41:11.622Z,98239.16
2022-11-27T17:43:39.609Z,98247.78
2022-11-27T17:46:33.283Z,98234.00
2022-11-27T17:49:01.820Z,98235.66
2022-11-27T17:51:31.542Z,98237.53
2022-11-27T17:54:01.137Z,98235.84
2022-11-27T17:56:28.977Z,98247.38
2022-11-27T17:58:55.997Z,98236.09
2022-11-27T18:01:24.972Z,98239.56
2022-11-27T18:03:54.622Z,98241.22
2022-11-27T18:06:23.269Z,98228.47
2022-11-27T18:08:50.563Z,98238.53
2022-11-27T18:11:20.911Z,98238.09
2022-11-27T18:13:48.570Z,98236.25
2022-11-27T18:16:15.636Z,98230.06
2022-11-27T18:18:42.352Z,98231.94
2022-11-27T18:21:17.868Z,98240.34
2022-11-27T18:24:20.560Z,98230.88
2022-11-27T18:29:22.806Z,98230.50
2022-11-27T18:31:51.286Z,98222.31
2022-11-27T18:34:18.030Z,98225.00
2022-11-27T18:36:45.890Z,98224.31
2022-11-27T18:39:12.994Z,98222.09
2022-11-27T18:41:40.854Z,98221.06
2022-11-27T18:44:07.585Z,98223.50
2022-11-27T18:46:34.720Z,98215.72
2022-11-27T18:49:01.379Z,98225.75
2022-11-27T18:51:28.053Z,98225.75
2022-11-27T18:53:56.057Z,98215.06
2022-11-27T18:56:25.498Z,98222.69
2022-11-27T18:58:53.851Z,98208.50
2022-11-27T19:01:38.140Z,98219.78
2022-11-27T19:04:06.735Z,98214.44
2022-11-27T19:06:36.200Z,98218.16
2022-11-27T19:09:03.044Z,98209.97
2022-11-27T19:11:30.892Z,98209.97
2022-11-27T19:13:58.645Z,98214.06
2022-11-27T19:16:31.343Z,98216.72
2022-11-27T19:19:00.586Z,98210.78
2022-11-27T19:21:29.634Z,98200.06
2022-11-27T19:23:58.600Z,98205.19
2022-11-27T19:26:28.640Z,98203.13
2022-11-27T19:28:57.962Z,98201.47
2022-11-27T19:31:25.881Z,98216.72
2022-11-27T19:33:55.916Z,98209.34
2022-11-27T19:36:23.175Z,98210.41
2022-11-27T19:38:55.079Z,98215.75
2022-11-27T19:41:22.446Z,98220.28
2022-11-27T19:43:49.430Z,98213.28
2022-11-27T19:46:25.744Z,98215.75
2022-11-27T19:48:57.348Z,98214.31
2022-11-27T19:51:25.130Z,98210.81
2022-11-27T19:53:52.461Z,98216.56
2022-11-27T19:56:19.582Z,98214.69
2022-11-27T19:58:46.271Z,98212.84
2022-11-27T20:01:18.579Z,98211.59
2022-11-27T20:03:46.256Z,98215.53
2022-11-27T20:06:18.658Z,98220.69
2022-11-27T20:08:46.770Z,98204.22
2022-11-27T20:11:18.768Z,98214.69
2022-11-27T20:13:45.885Z,98215.53
2022-11-27T20:16:15.298Z,98212.25
2022-11-27T20:18:41.975Z,98208.75
2022-11-27T20:21:20.769Z,98202.78
2022-11-27T20:23:49.326Z,98201.75
2022-11-27T20:26:19.125Z,98197.81
2022-11-27T20:28:46.232Z,98197.81
2022-11-27T20:31:17.036Z,98206.50
2022-11-27T20:33:43.769Z,98203.03
2022-11-27T20:36:12.776Z,98203.84
2022-11-27T20:38:39.891Z,98210.81
2022-11-27T20:41:09.195Z,98206.50
2022-11-27T20:43:36.827Z,98203.22
2022-11-27T20:46:04.119Z,98197.28
2022-11-27T20:48:31.621Z,98197.69
2022-11-27T20:51:08.865Z,98197.69
2022-11-27T20:53:35.795Z,98188.47
2022-11-27T20:56:06.780Z,98194.41
2022-11-27T20:58:37.895Z,98190.69
2022-11-27T21:01:26.373Z,98184.94
2022-11-27T21:03:54.688Z,98193.19
2022-11-27T21:06:23.622Z,98189.72
2022-11-27T21:08:50.463Z,98186.22
2022-11-27T21:11:18.770Z,98188.88
2022-11-27T21:13:46.888Z,98179.44
2022-11-27T21:16:14.478Z,98188.06
2022-11-27T21:18:41.409Z,98179.28
2022-11-27T21:21:13.595Z,98172.06
2022-11-27T21:23:41.775Z,98185.81
2022-11-27T21:26:09.497Z,98186.41
2022-11-27T21:28:36.842Z,98178.63
2022-11-27T21:31:08.381Z,98179.66
2022-11-27T21:33:36.017Z,98178.22
2022-11-27T21:36:03.275Z,98178.22
2022-11-27T21:38:29.991Z,98173.91
2022-11-27T21:40:56.728Z,98170.19
2022-11-27T21:43:23.554Z,98173.91
2022-11-27T21:45:50.462Z,98179.84
2022-11-27T21:48:17.170Z,98173.09
2022-11-27T21:50:43.929Z,98179.47
2022-11-27T21:53:10.565Z,98176.78
2022-11-27T21:55:44.315Z,98176.78
2022-11-27T21:58:11.064Z,98177.00
2022-11-27T22:00:38.082Z,98172.25
2022-11-27T22:03:05.343Z,98179.28
2022-11-27T22:05:32.427Z,98175.53
2022-11-27T22:07:59.142Z,98172.88
2022-11-27T22:10:25.951Z,98173.91
2022-11-27T22:12:53.026Z,98180.09
2022-11-27T22:15:19.972Z,98172.25
2022-11-27T22:17:46.714Z,98170.84
2022-11-27T22:20:13.720Z,98171.66
2022-11-27T22:22:40.341Z,98175.97
2022-11-27T22:25:07.285Z,98166.09
2022-11-27T22:27:34.203Z,98165.06
2022-11-27T22:30:00.805Z,98164.84
2022-11-27T22:32:27.566Z,98168.56
2022-11-27T22:34:54.262Z,98162.41
2022-11-27T22:37:20.824Z,98151.88
2022-11-27T22:39:47.536Z,98150.03
2022-11-27T22:42:14.309Z,98150.44
2022-11-27T22:44:41.107Z,98159.91
2022-11-27T22:47:07.997Z,98151.06
2022-11-27T22:49:34.729Z,98149.44
2022-11-27T22:52:01.434Z,98151.69
2022-11-27T22:54:28.096Z,98144.69
2022-11-27T22:56:54.954Z,98144.69
2022-11-27T22:59:36.832Z,98138.13
2022-11-27T23:02:03.819Z,98135.44
2022-11-27T23:04:30.707Z,98140.78
2022-11-27T23:06:57.285Z,98139.75
2022-11-27T23:09:24.211Z,98142.44
2022-11-27T23:11:50.910Z,98139.16
2022-11-27T23:14:17.945Z,98147.19
2022-11-27T23:16:45.157Z,98143.09
2022-11-27T23:19:12.484Z,98133.66
2022-11-27T23:21:39.743Z,98140.41
2022-11-27T23:24:08.476Z,98129.53
2022-11-27T23:26:36.752Z,98120.50
2022-11-27T23:29:04.562Z,98124.84
2022-11-27T23:31:35.386Z,98113.75
2022-11-27T23:34:07.674Z,98129.34
2022-11-27T23:36:35.389Z,98125.84
2022-11-27T23:39:05.179Z,98125.03
2022-11-27T23:41:32.331Z,98124.22
2022-11-27T23:43:59.585Z,98120.94
2022-11-27T23:46:29.393Z,98111.69
2022-11-27T23:48:58.304Z,98118.91
2022-11-27T23:51:28.319Z,98117.28
2022-11-27T23:53:55.835Z,98107.03
2022-11-27T23:56:28.334Z,98117.28
2022-11-27T23:58:56.206Z,98107.44
